Time;durP1;ratioP1;P1;durP2;ratioP2;P2;SDS_P1;SDS_P2;PMS_P1;PMS_P2;Temp;Humidity;BMP_temperature;BMP_pressure;BME280_temperature;BME280_humidity;BME280_pressure;Samples;Min_cycle;Max_cycle;Signal;HPM_P1;HPM_P2
2024/04/03 00:00:33;;;;;;;3.80;1.33;;;;;;;8.64;85.94;153577.44;5028069;28;20470;-93
2024/04/03 00:02:59;;;;;;;2.87;1.40;;;;;;;8.58;85.66;153564.53;5031638;28;20311;-94
2024/04/03 00:05:25;;;;;;;2.00;1.10;;;;;;;8.55;85.21;153556.75;5027015;28;20463;-93
2024/04/03 00:07:52;;;;;;;4.23;1.10;;;;;;;8.54;85.51;153554.19;5026498;28;20206;-94
2024/04/03 00:10:20;;;;;;;4.07;1.10;;;;;;;8.55;85.96;153555.50;5029854;28;20464;-93
2024/04/03 00:12:48;;;;;;;1.57;1.20;;;;;;;8.55;87.07;153556.75;5028783;28;20595;-93
2024/04/03 00:15:15;;;;;;;1.37;0.90;;;;;;;8.50;86.42;153543.84;5031656;28;20947;-93
2024/04/03 00:17:40;;;;;;;4.50;1.10;;;;;;;8.48;86.05;153538.69;5030139;28;20280;-93
2024/04/03 00:20:07;;;;;;;1.10;0.80;;;;;;;8.50;86.51;153543.84;5028276;28;20459;-92
2024/04/03 00:22:32;;;;;;;1.70;1.10;;;;;;;8.50;86.78;153543.84;5029460;28;20211;-92
2024/04/03 00:24:59;;;;;;;1.90;0.90;;;;;;;8.49;86.03;153539.97;5028411;28;20460;-91
2024/04/03 00:27:26;;;;;;;1.50;1.10;;;;;;;8.49;85.91;153539.97;5027748;28;20215;-93
2024/04/03 00:29:52;;;;;;;2.37;1.20;;;;;;;8.48;86.18;153537.38;5032091;28;20482;-91
2024/04/03 00:32:18;;;;;;;1.70;1.27;;;;;;;8.48;85.54;153537.38;5012402;28;20456;-92
2024/04/03 00:34:45;;;;;;;2.17;1.13;;;;;;;8.46;84.76;153533.53;5027244;28;20458;-92
2024/04/03 00:37:10;;;;;;;2.23;1.10;;;;;;;8.44;85.21;153528.34;5022134;28;20277;-93
2024/04/03 00:39:37;;;;;;;1.90;1.40;;;;;;;8.45;85.69;153530.91;5010842;28;21046;-93
2024/04/03 00:42:03;;;;;;;3.07;1.07;;;;;;;8.47;86.79;153536.06;4995124;28;20272;-92
2024/04/03 00:44:31;;;;;;;3.30;1.30;;;;;;;8.47;86.87;153536.06;5028494;28;20485;-93
2024/04/03 00:47:01;;;;;;;1.70;1.27;;;;;;;8.48;87.60;153538.69;5027462;28;20926;-93
2024/04/03 00:49:27;;;;;;;1.63;0.90;;;;;;;8.48;87.93;153537.38;5027403;28;20459;-92
2024/04/03 00:51:53;;;;;;;2.00;1.13;;;;;;;8.48;87.90;153538.69;5027185;28;20490;-92
2024/04/03 00:54:20;;;;;;;1.73;1.20;;;;;;;8.45;87.49;153529.63;5031292;28;20907;-93
2024/04/03 00:56:46;;;;;;;2.40;1.27;;;;;;;8.46;87.10;153532.22;5012243;28;20222;-92
2024/04/03 00:59:13;;;;;;;3.03;1.13;;;;;;;8.44;87.13;153527.06;5028766;28;20493;-93
2024/04/03 01:01:39;;;;;;;2.20;1.33;;;;;;;8.43;86.96;153524.47;5028421;28;20225;-93
2024/04/03 01:04:06;;;;;;;2.60;1.37;;;;;;;8.42;86.29;153521.84;5022374;28;20917;-93
2024/04/03 01:06:32;;;;;;;1.53;1.13;;;;;;;8.42;86.53;153523.16;5028547;28;20455;-94
2024/04/03 01:08:58;;;;;;;1.53;0.90;;;;;;;8.40;86.88;153518.00;5028635;28;20509;-92
2024/04/03 01:11:24;;;;;;;2.93;1.43;;;;;;;8.38;86.71;153512.84;5028571;28;20246;-93
2024/04/03 01:13:50;;;;;;;5.20;1.40;;;;;;;8.37;86.37;153510.22;5027418;28;20941;-93
2024/04/03 01:16:16;;;;;;;2.03;1.37;;;;;;;8.38;87.15;153511.53;5010890;28;20206;-93
2024/04/03 01:18:44;;;;;;;1.80;0.80;;;;;;;8.39;87.73;153514.13;5027156;28;20474;-92
2024/04/03 01:21:09;;;;;;;1.40;1.10;;;;;;;8.35;88.10;153505.06;5010883;28;20230;-93
2024/04/03 01:23:36;;;;;;;2.00;1.20;;;;;;;8.33;88.23;153499.91;5027365;28;20487;-92
2024/04/03 01:26:03;;;;;;;1.90;1.13;;;;;;;8.33;88.13;153499.91;5014540;28;20852;-92
2024/04/03 01:28:30;;;;;;;2.80;1.10;;;;;;;8.34;88.25;153501.22;5030317;28;20424;-93
2024/04/03 01:30:56;;;;;;;1.10;0.80;;;;;;;8.32;87.97;153496.00;5028666;28;20471;-93
2024/04/03 01:33:22;;;;;;;3.07;0.97;;;;;;;8.31;88.06;153494.72;5029276;28;20649;-93
2024/04/03 01:35:48;;;;;;;3.00;1.27;;;;;;;8.30;88.14;153492.16;5027800;28;20222;-93
2024/04/03 01:38:14;;;;;;;2.03;1.13;;;;;;;8.29;88.41;153488.25;5025520;28;20529;-94
2024/04/03 01:40:40;;;;;;;2.60;1.20;;;;;;;8.23;88.08;153474.03;5025628;28;20207;-92
2024/04/03 01:43:08;;;;;;;4.70;1.90;;;;;;;8.23;88.31;153474.03;5028809;28;20428;-93
2024/04/03 01:45:33;;;;;;;1.93;1.33;;;;;;;8.19;88.10;153463.66;5027440;28;20218;-93
2024/04/03 01:48:00;;;;;;;2.80;1.33;;;;;;;8.18;87.89;153461.06;5028179;28;20505;-93
2024/04/03 01:50:36;;;;;;;1.37;1.07;;;;;;;8.17;88.23;153457.19;5011590;28;20233;-93
2024/04/03 01:53:03;;;;;;;1.70;1.40;;;;;;;8.16;88.73;153455.91;5026165;28;20447;-93
2024/04/03 01:55:29;;;;;;;6.50;2.07;;;;;;;8.12;88.64;153444.28;5009317;28;20645;-94
2024/04/03 01:57:55;;;;;;;2.20;1.33;;;;;;;8.08;88.65;153435.22;5027167;28;21049;-93
2024/04/03 02:00:22;;;;;;;1.83;1.40;;;;;;;8.07;88.54;153432.66;5022938;28;20210;-96
2024/04/03 02:02:49;;;;;;;2.27;1.63;;;;;;;8.06;88.72;153430.06;5031190;28;20551;-94
2024/04/03 02:05:14;;;;;;;2.80;1.40;;;;;;;8.04;88.52;153423.63;5042502;28;20537;-94
2024/04/03 02:07:41;;;;;;;1.80;1.17;;;;;;;8.05;88.46;153426.22;5032735;28;20467;-94
2024/04/03 02:10:07;;;;;;;2.67;1.20;;;;;;;8.04;88.52;153424.91;5014880;28;20210;-93
2024/04/03 02:12:33;;;;;;;1.70;1.20;;;;;;;8.06;88.64;153428.75;5029794;28;20504;-94
2024/04/03 02:14:59;;;;;;;3.07;1.10;;;;;;;8.07;88.15;153431.38;5030362;28;20234;-93
2024/04/03 02:17:27;;;;;;;1.83;1.33;;;;;;;8.07;88.43;153431.38;5030350;28;20869;-93
2024/04/03 02:19:52;;;;;;;2.23;1.20;;;;;;;8.06;88.58;153430.06;4996593;28;20202;-93
2024/04/03 02:22:18;;;;;;;2.17;1.40;;;;;;;8.06;88.72;153430.06;5013768;28;20497;-94
2024/04/03 02:24:44;;;;;;;3.43;1.70;;;;;;;8.07;88.72;153432.66;5035100;28;20224;-93
2024/04/03 02:27:10;;;;;;;1.83;1.47;;;;;;;8.08;88.80;153435.22;5029633;28;20435;-93
2024/04/03 02:29:36;;;;;;;2.10;1.43;;;;;;;8.07;88.81;153432.66;5029988;28;20234;-93
2024/04/03 02:32:03;;;;;;;2.47;1.30;;;;;;;8.08;88.61;153435.22;5030080;28;20522;-93
2024/04/03 02:34:29;;;;;;;1.93;1.20;;;;;;;8.09;88.52;153437.81;5029137;28;20206;-93
2024/04/03 02:36:56;;;;;;;2.43;1.40;;;;;;;8.09;88.83;153437.81;5030662;28;20436;-93
2024/04/03 02:39:21;;;;;;;2.00;1.10;;;;;;;8.09;88.65;153437.81;5012368;28;20501;-93
2024/04/03 02:41:48;;;;;;;2.07;1.20;;;;;;;8.12;89.42;153445.59;5029696;28;20934;-93
2024/04/03 02:44:13;;;;;;;2.00;1.40;;;;;;;8.13;90.02;153446.88;5028121;28;20655;-93
2024/04/03 02:46:40;;;;;;;1.93;1.40;;;;;;;8.12;89.85;153444.28;5029267;28;20534;-92
2024/04/03 02:49:05;;;;;;;3.03;1.50;;;;;;;8.11;89.38;153441.69;5029874;28;20214;-93
2024/04/03 02:51:33;;;;;;;3.87;1.37;;;;;;;8.15;89.49;153453.34;5034030;28;20786;-94
2024/04/03 02:53:59;;;;;;;1.83;1.23;;;;;;;8.15;89.48;153453.34;5032425;28;20700;-93
2024/04/03 02:56:25;;;;;;;2.23;1.30;;;;;;;8.16;89.33;153455.91;5029651;28;20446;-93
2024/04/03 02:58:51;;;;;;;1.83;1.30;;;;;;;8.17;89.27;153457.19;5030254;28;20580;-92
2024/04/03 03:01:17;;;;;;;2.20;1.33;;;;;;;8.15;88.94;153453.34;5007098;28;20677;-93
2024/04/03 03:03:43;;;;;;;5.03;1.27;;;;;;;8.17;89.31;153458.50;5031851;28;20210;-91
2024/04/03 03:06:09;;;;;;;2.30;1.70;;;;;;;8.18;89.79;153461.06;5031155;28;20486;-93
2024/04/03 03:08:36;;;;;;;1.80;1.30;;;;;;;8.15;89.68;153452.03;5014304;28;20237;-93
2024/04/03 03:11:04;;;;;;;1.20;1.00;;;;;;;8.14;89.07;153449.44;5011101;28;20460;-94
2024/04/03 03:13:31;;;;;;;1.67;1.10;;;;;;;8.16;88.84;153455.91;5027070;28;20459;-94
2024/04/03 03:15:58;;;;;;;1.87;0.90;;;;;;;8.16;88.71;153454.59;5024762;28;20484;-93
2024/04/03 03:18:26;;;;;;;1.43;1.20;;;;;;;8.17;88.20;153457.19;5023633;28;20507;-94
2024/04/03 03:20:53;;;;;;;1.70;1.00;;;;;;;8.20;88.06;153464.97;5028816;28;20459;-93
2024/04/03 03:23:19;;;;;;;1.33;0.90;;;;;;;8.22;88.07;153470.13;5011187;28;20439;-91
2024/04/03 03:25:48;;;;;;;1.70;0.93;;;;;;;8.24;88.97;153475.28;5028777;28;20448;-92
2024/04/03 03:28:14;;;;;;;2.23;1.17;;;;;;;8.23;88.53;153472.72;5028501;28;20685;-93
2024/04/03 03:30:40;;;;;;;1.53;1.17;;;;;;;8.22;88.52;153471.44;5029598;28;20491;-94
2024/04/03 03:33:06;;;;;;;1.50;1.00;;;;;;;8.23;88.30;153474.03;5012581;28;20444;-93
2024/04/03 03:35:33;;;;;;;1.87;1.03;;;;;;;8.26;88.38;153481.75;5026098;28;20499;-93
2024/04/03 03:37:59;;;;;;;1.53;1.10;;;;;;;8.27;88.39;153484.41;5030645;28;20230;-93
2024/04/03 03:40:26;;;;;;;1.40;0.97;;;;;;;8.27;87.99;153484.41;5034636;28;20487;-93
2024/04/03 03:42:54;;;;;;;3.13;1.50;;;;;;;8.28;87.89;153487.00;5018371;28;21026;-93
2024/04/03 03:45:21;;;;;;;1.70;1.13;;;;;;;8.29;87.42;153488.25;5028515;28;20447;-93
2024/04/03 03:47:47;;;;;;;1.60;1.20;;;;;;;8.32;87.44;153497.31;5022430;28;20455;-93
2024/04/03 03:52:59;;;;;;;1.93;1.00;;;;;;;8.32;88.01;153497.31;5034776;28;20432;-93
2024/04/03 03:55:27;;;;;;;2.67;1.40;;;;;;;8.31;88.03;153494.72;5030392;28;20528;-92
2024/04/03 03:57:55;;;;;;;1.43;1.07;;;;;;;8.30;87.85;153492.16;5025476;28;20499;-93
2024/04/03 04:00:22;;;;;;;1.53;1.17;;;;;;;8.30;86.98;153492.16;5023224;28;20455;-94
2024/04/03 04:02:48;;;;;;;2.63;1.20;;;;;;;8.31;86.31;153493.47;5027252;28;20495;-93
2024/04/03 04:05:14;;;;;;;2.57;1.27;;;;;;;8.32;86.26;153496.00;5012670;28;20448;-92
2024/04/03 04:07:41;;;;;;;1.53;1.17;;;;;;;8.32;86.75;153496.00;5031138;28;21010;-93
2024/04/03 04:10:06;;;;;;;1.50;1.37;;;;;;;8.32;87.06;153497.31;5021899;28;20728;-92
2024/04/03 04:12:33;;;;;;;3.00;1.37;;;;;;;8.31;87.51;153494.72;5037969;28;20448;-93
2024/04/03 04:15:00;;;;;;;2.17;1.10;;;;;;;8.31;88.07;153494.72;5008023;28;20562;-92
2024/04/03 04:17:26;;;;;;;3.47;1.33;;;;;;;8.29;88.03;153489.56;5026177;28;20781;-92
2024/04/03 04:19:52;;;;;;;2.30;1.20;;;;;;;8.29;87.46;153488.25;5028821;28;20823;-92
2024/04/03 04:22:18;;;;;;;1.60;1.30;;;;;;;8.30;86.75;153492.16;5027208;28;20547;-92
2024/04/03 04:24:45;;;;;;;2.10;1.33;;;;;;;8.31;87.14;153494.72;5028208;28;20214;-93
2024/04/03 04:27:12;;;;;;;1.80;1.40;;;;;;;8.31;86.54;153494.72;5023675;28;20447;-92
2024/04/03 04:29:40;;;;;;;2.90;1.30;;;;;;;8.33;86.12;153498.63;5023427;28;20491;-91
2024/04/03 04:32:08;;;;;;;2.00;1.23;;;;;;;8.34;86.08;153502.47;5022273;28;20868;-93
2024/04/03 04:34:34;;;;;;;1.43;0.93;;;;;;;8.35;86.23;153505.06;5016695;28;20440;-92
2024/04/03 04:37:00;;;;;;;1.80;1.13;;;;;;;8.38;86.59;153512.84;5021373;28;20846;-93
2024/04/03 04:39:26;;;;;;;3.03;1.40;;;;;;;8.37;86.91;153508.94;5033939;28;20254;-92
2024/04/03 04:41:53;;;;;;;2.33;1.30;;;;;;;8.35;86.73;153505.06;5027719;28;20447;-92
2024/04/03 04:44:19;;;;;;;2.87;1.53;;;;;;;8.37;86.63;153508.94;5027392;28;20703;-93
2024/04/03 04:46:48;;;;;;;4.83;1.43;;;;;;;8.37;86.21;153510.22;5028197;28;20483;-93
2024/04/03 04:49:15;;;;;;;1.40;1.00;;;;;;;8.38;85.64;153512.84;5031909;28;20467;-93
2024/04/03 04:51:42;;;;;;;2.33;1.30;;;;;;;8.40;86.32;153516.69;5033351;28;20745;-93
2024/04/03 04:54:08;;;;;;;2.17;1.10;;;;;;;8.42;87.42;153523.16;5037533;28;20470;-93
2024/04/03 04:56:34;;;;;;;1.80;1.07;;;;;;;8.42;87.42;153523.16;5033314;28;20536;-94
2024/04/03 04:59:00;;;;;;;1.10;0.83;;;;;;;8.42;86.83;153521.84;5029841;28;20230;-92
2024/04/03 05:01:27;;;;;;;1.93;0.93;;;;;;;8.41;86.74;153520.59;5021072;28;20961;-94
2024/04/03 05:03:52;;;;;;;4.20;1.20;;;;;;;8.41;86.93;153519.28;5030328;28;20211;-93
2024/04/03 05:06:21;;;;;;;2.00;0.93;;;;;;;8.42;86.56;153521.84;5031054;28;20513;-94
2024/04/03 05:08:46;;;;;;;3.70;1.07;;;;;;;8.42;86.37;153523.16;5030722;28;20210;-95
2024/04/03 05:11:13;;;;;;;2.63;0.90;;;;;;;8.46;86.53;153532.22;5030922;28;20456;-94
2024/04/03 05:13:39;;;;;;;2.00;1.13;;;;;;;8.46;86.24;153533.53;5030495;28;20249;-93
2024/04/03 05:16:06;;;;;;;2.80;1.20;;;;;;;8.47;86.32;153536.06;5028261;28;20459;-94
2024/04/03 05:18:32;;;;;;;1.50;1.20;;;;;;;8.46;86.48;153533.53;5030296;28;20238;-94
2024/04/03 05:20:58;;;;;;;1.90;1.17;;;;;;;8.46;85.53;153532.22;5029746;28;20456;-93
2024/04/03 05:23:25;;;;;;;1.53;1.03;;;;;;;8.50;85.03;153543.84;5032110;28;20288;-94
2024/04/03 05:25:56;;;;;;;3.50;1.27;;;;;;;8.52;84.78;153547.75;4995036;28;20464;-94
2024/04/03 05:28:22;;;;;;;1.47;0.80;;;;;;;8.54;85.39;153554.19;5012233;28;20521;-94
2024/04/03 05:30:48;;;;;;;1.40;1.00;;;;;;;8.54;86.30;153552.91;5024630;28;20480;-94
2024/04/03 05:33:14;;;;;;;1.30;0.80;;;;;;;8.52;86.85;153549.00;5009058;28;20227;-93
2024/04/03 05:35:40;;;;;;;1.73;1.20;;;;;;;8.51;86.56;153546.44;5010737;28;20468;-93
2024/04/03 05:38:06;;;;;;;2.80;1.30;;;;;;;8.51;87.05;153546.44;5008087;28;20259;-94
2024/04/03 05:40:34;;;;;;;1.53;1.10;;;;;;;8.51;86.34;153545.13;5010375;28;21007;-93
2024/04/03 05:42:59;;;;;;;1.80;1.00;;;;;;;8.53;85.93;153551.59;5028969;28;20577;-94
2024/04/03 05:45:26;;;;;;;2.33;1.00;;;;;;;8.55;85.64;153556.75;5015017;28;20456;-93
2024/04/03 05:47:51;;;;;;;2.63;1.20;;;;;;;8.58;86.53;153564.53;5030314;28;20276;-95
2024/04/03 05:50:18;;;;;;;1.73;1.00;;;;;;;8.56;86.11;153558.06;5014866;28;20448;-94
2024/04/03 05:52:43;;;;;;;1.70;1.20;;;;;;;8.59;86.78;153565.81;5015822;28;20678;-94
2024/04/03 05:55:10;;;;;;;1.50;1.13;;;;;;;8.62;86.52;153572.28;5029699;28;20511;-93
2024/04/03 05:57:37;;;;;;;1.77;0.90;;;;;;;8.62;86.14;153572.28;5014667;28;20207;-94
2024/04/03 06:00:05;;;;;;;1.90;1.03;;;;;;;8.64;85.26;153577.44;5032737;28;20456;-94
2024/04/03 06:02:37;;;;;;;1.10;0.90;;;;;;;8.66;84.96;153582.66;5012325;28;20459;-95
2024/04/03 06:05:05;;;;;;;2.03;1.40;;;;;;;8.66;85.15;153583.91;5014778;28;20460;-95
2024/04/03 06:07:30;;;;;;;1.60;1.13;;;;;;;8.70;86.79;153592.97;5014006;28;20243;-95
2024/04/03 06:09:57;;;;;;;2.33;1.10;;;;;;;8.70;86.90;153594.28;5014479;28;20941;-94
2024/04/03 06:12:23;;;;;;;2.00;1.30;;;;;;;8.75;87.34;153605.91;5013862;28;20215;-95
2024/04/03 06:14:50;;;;;;;2.10;1.40;;;;;;;8.78;88.17;153613.66;5029491;28;20506;-95
2024/04/03 06:17:30;;;;;;;1.33;1.00;;;;;;;8.80;88.56;153618.81;5013371;28;20459;-93
2024/04/03 06:19:55;;;;;;;2.43;1.00;;;;;;;8.82;88.77;153623.97;5029023;28;21003;-95
2024/04/03 06:22:22;;;;;;;1.63;0.80;;;;;;;8.86;89.03;153634.34;5013648;28;20452;-94
2024/04/03 06:24:47;;;;;;;2.17;0.90;;;;;;;8.89;89.46;153642.13;5011760;28;20609;-93
2024/04/03 06:27:14;;;;;;;2.20;1.10;;;;;;;8.90;89.29;153645.97;5013621;28;20464;-93
2024/04/03 06:29:40;;;;;;;1.83;1.30;;;;;;;8.92;88.95;153649.88;5016989;28;20242;-93
2024/04/03 06:32:07;;;;;;;1.20;0.83;;;;;;;8.96;89.55;153661.50;5031956;28;20908;-93
2024/04/03 06:34:34;;;;;;;1.63;1.00;;;;;;;8.98;90.15;153666.66;5015054;28;20451;-93
2024/04/03 06:37:00;;;;;;;1.13;0.87;;;;;;;9.00;90.99;153670.56;5032974;28;20454;-93
2024/04/03 06:39:26;;;;;;;2.63;1.10;;;;;;;9.02;90.07;153675.72;5013301;28;20509;-92
2024/04/03 06:41:52;;;;;;;2.00;1.00;;;;;;;9.08;90.64;153691.25;5031365;28;20218;-92
2024/04/03 06:44:18;;;;;;;1.73;1.00;;;;;;;9.09;91.06;153695.13;5029321;28;20451;-91
2024/04/03 06:46:46;;;;;;;1.73;1.17;;;;;;;9.15;91.36;153709.34;5029810;28;20297;-91
2024/04/03 06:49:13;;;;;;;2.20;1.03;;;;;;;9.18;91.74;153717.13;5010187;28;20435;-91
2024/04/03 06:51:39;;;;;;;2.03;1.47;;;;;;;9.22;91.95;153726.13;5028334;28;20529;-91
2024/04/03 06:54:08;;;;;;;1.20;0.90;;;;;;;9.22;90.53;153727.44;5026130;28;20451;-91
2024/04/03 06:56:34;;;;;;;1.50;1.13;;;;;;;9.25;89.91;153735.22;5010587;28;20211;-91
2024/04/03 06:59:13;;;;;;;2.27;1.20;;;;;;;9.28;90.47;153742.97;5029556;28;20468;-91
2024/04/03 07:01:38;;;;;;;1.40;1.10;;;;;;;9.27;89.79;153740.38;5027970;28;20210;-91
2024/04/03 07:04:07;;;;;;;2.23;1.40;;;;;;;9.31;89.74;153750.75;5027360;28;20963;-92
2024/04/03 07:06:34;;;;;;;2.17;1.60;;;;;;;9.31;89.72;153749.44;5029497;28;20962;-92
2024/04/03 07:09:00;;;;;;;3.10;1.20;;;;;;;9.29;88.81;153745.59;5030268;28;20944;-93
2024/04/03 07:11:29;;;;;;;2.60;1.20;;;;;;;9.30;89.05;153748.13;5028500;28;20506;-91
2024/04/03 07:13:55;;;;;;;3.90;1.30;;;;;;;9.31;89.38;153749.44;5025236;28;20828;-89
2024/04/03 07:16:23;;;;;;;1.77;1.30;;;;;;;9.31;88.40;153749.44;5030969;28;20537;-92
2024/04/03 07:18:49;;;;;;;2.13;1.10;;;;;;;9.30;88.32;153748.13;5030733;28;20514;-92
2024/04/03 07:21:15;;;;;;;2.23;1.10;;;;;;;9.32;88.66;153753.31;5026137;28;20455;-92
2024/04/03 07:23:42;;;;;;;2.20;1.10;;;;;;;9.35;89.19;153761.06;5029717;28;20893;-92
2024/04/03 07:26:08;;;;;;;2.23;1.00;;;;;;;9.36;89.08;153763.66;5025325;28;20546;-92
2024/04/03 07:28:35;;;;;;;1.83;0.80;;;;;;;9.39;87.78;153771.44;5026965;28;20497;-92
2024/04/03 07:31:00;;;;;;;2.90;1.23;;;;;;;9.43;87.54;153781.75;5027859;28;20734;-91
2024/04/03 07:33:27;;;;;;;2.20;1.00;;;;;;;9.47;88.09;153792.13;5028846;28;20448;-91
2024/04/03 07:35:52;;;;;;;2.63;1.17;;;;;;;9.51;88.47;153801.16;5028438;28;20693;-91
2024/04/03 07:38:20;;;;;;;1.70;1.10;;;;;;;9.55;88.80;153811.53;5028669;28;20920;-91
2024/04/03 07:40:48;;;;;;;1.90;1.27;;;;;;;9.56;87.46;153815.41;5028708;28;20214;-91
2024/04/03 07:43:15;;;;;;;2.17;0.97;;;;;;;9.65;87.49;153838.72;5011954;28;20451;-91
2024/04/03 07:45:40;;;;;;;1.50;1.27;;;;;;;9.70;88.09;153851.63;5030780;28;20543;-91
2024/04/03 07:48:07;;;;;;;1.43;1.00;;;;;;;9.77;87.60;153868.44;5022838;28;20511;-90
2024/04/03 07:50:33;;;;;;;1.13;0.90;;;;;;;9.86;87.22;153891.75;5024221;28;20206;-90
2024/04/03 07:53:00;;;;;;;1.50;0.93;;;;;;;9.92;87.96;153906.00;5029923;28;20439;-91
2024/04/03 07:55:25;;;;;;;2.83;1.50;;;;;;;9.94;86.93;153912.47;5027981;28;20206;-90
2024/04/03 07:57:53;;;;;;;1.90;1.00;;;;;;;10.03;87.46;153934.47;5029209;28;20455;-90
2024/04/03 08:00:19;;;;;;;1.20;1.00;;;;;;;10.09;87.09;153951.25;5026915;28;20231;-91
2024/04/03 08:02:45;;;;;;;2.90;1.00;;;;;;;10.11;85.47;153955.19;5025587;28;20466;-90
2024/04/03 08:05:12;;;;;;;1.60;1.20;;;;;;;10.18;83.85;153973.34;5024161;28;20214;-91
2024/04/03 08:07:40;;;;;;;1.73;0.80;;;;;;;10.27;82.11;153996.66;5024322;28;20483;-90
2024/04/03 08:10:07;;;;;;;2.03;1.37;;;;;;;10.36;81.22;154019.94;5027475;28;20448;-90
2024/04/03 08:12:34;;;;;;;3.00;1.50;;;;;;;10.43;79.72;154038.09;5026378;28;20451;-90
2024/04/03 08:15:01;;;;;;;1.90;1.10;;;;;;;10.52;78.93;154060.06;5024083;28;20996;-90
2024/04/03 08:17:28;;;;;;;1.83;1.37;;;;;;;10.58;76.84;154075.59;5025244;28;20498;-89
2024/04/03 08:19:55;;;;;;;1.33;1.00;;;;;;;10.60;77.33;154082.06;5025932;28;20588;-91
2024/04/03 08:22:21;;;;;;;1.90;1.10;;;;;;;10.65;78.07;154095.03;5025194;28;20443;-90
2024/04/03 08:24:48;;;;;;;2.30;1.20;;;;;;;10.69;77.90;154105.41;5005771;28;20467;-91
2024/04/03 08:27:14;;;;;;;2.97;1.60;;;;;;;10.76;77.45;154123.53;5025539;28;20878;-89
2024/04/03 08:29:42;;;;;;;1.90;1.40;;;;;;;10.86;76.53;154149.41;5019204;28;20560;-90
2024/04/03 08:32:10;;;;;;;1.30;0.90;;;;;;;10.97;74.89;154176.59;5000178;28;20448;-90
2024/04/03 08:34:37;;;;;;;1.50;1.10;;;;;;;11.12;73.91;154214.19;4993390;28;20912;-90
2024/04/03 08:37:04;;;;;;;3.03;1.37;;;;;;;11.23;74.24;154242.66;4991515;28;20483;-90
2024/04/03 08:39:29;;;;;;;1.90;0.90;;;;;;;11.32;72.67;154266.00;4993057;28;20478;-90
2024/04/03 08:41:58;;;;;;;1.70;1.20;;;;;;;11.45;72.92;154300.97;4994487;28;20458;-90
2024/04/03 08:44:24;;;;;;;3.27;1.20;;;;;;;11.47;71.74;154306.16;5011336;28;20681;-90
2024/04/03 08:46:54;;;;;;;2.30;1.27;;;;;;;11.61;73.50;154342.44;4997648;28;20466;-89
2024/04/03 08:49:22;;;;;;;3.93;1.20;;;;;;;11.68;71.66;154359.28;4994096;28;20442;-90
2024/04/03 08:52:01;;;;;;;2.70;1.30;;;;;;;11.69;72.02;154361.94;4994510;28;20462;-90
2024/04/03 08:54:27;;;;;;;1.70;1.20;;;;;;;11.75;71.26;154376.19;5003630;28;20476;-90
2024/04/03 08:56:54;;;;;;;2.03;1.53;;;;;;;11.78;71.91;154383.97;4985996;28;20799;-89
2024/04/03 08:59:20;;;;;;;3.10;2.00;;;;;;;11.85;73.05;154403.41;4986938;28;20480;-91
2024/04/03 09:01:48;;;;;;;3.13;1.63;;;;;;;11.94;73.29;154425.47;4995040;28;20551;-89
2024/04/03 09:04:14;;;;;;;3.77;1.80;;;;;;;11.89;74.69;154413.75;4993509;28;20461;-89
2024/04/03 09:06:42;;;;;;;3.13;2.30;;;;;;;11.90;75.89;154415.06;4994200;28;20465;-90
2024/04/03 09:09:15;;;;;;;3.03;1.97;;;;;;;11.88;77.10;154409.88;4996769;28;20880;-90
2024/04/03 09:11:41;;;;;;;4.40;2.40;;;;;;;11.79;77.00;154387.84;4996740;28;20465;-90
2024/04/03 09:14:08;;;;;;;2.50;2.07;;;;;;;11.83;76.35;154398.22;4994454;28;21178;-90
2024/04/03 09:16:36;;;;;;;2.53;1.87;;;;;;;11.89;76.06;154412.44;5004093;28;20464;-89
2024/04/03 09:19:04;;;;;;;1.70;1.37;;;;;;;11.95;72.85;154429.31;4995111;28;20480;-89
2024/04/03 09:21:31;;;;;;;4.23;1.90;;;;;;;11.99;74.17;154439.66;4984562;28;20468;-91
2024/04/03 09:23:58;;;;;;;2.50;1.87;;;;;;;12.04;74.66;154452.69;4995208;28;20535;-90
2024/04/03 09:26:25;;;;;;;5.93;1.53;;;;;;;12.05;72.60;154455.25;5010776;28;20454;-89
2024/04/03 09:28:58;;;;;;;2.50;1.67;;;;;;;12.05;72.79;154455.25;4994924;28;20480;-90
2024/04/03 09:31:24;;;;;;;3.83;1.50;;;;;;;12.20;71.68;154494.13;5001184;28;20480;-91
2024/04/03 09:33:51;;;;;;;2.40;1.63;;;;;;;12.37;72.36;154535.59;4988520;28;20464;-89
2024/04/03 09:36:18;;;;;;;2.77;1.80;;;;;;;12.61;72.82;154597.84;4993918;28;20539;-91
2024/04/03 09:38:44;;;;;;;3.20;1.90;;;;;;;12.79;71.01;154644.53;4996408;28;20485;-90
2024/04/03 09:41:13;;;;;;;1.60;1.10;;;;;;;12.94;71.49;154683.50;4990803;28;20460;-90
2024/04/03 09:43:40;;;;;;;2.27;1.40;;;;;;;13.10;66.13;154725.06;4992236;28;20239;-92
2024/04/03 09:46:07;;;;;;;1.97;1.00;;;;;;;13.16;67.22;154740.59;4998074;28;20453;-89
2024/04/03 09:48:34;;;;;;;2.47;1.00;;;;;;;13.31;66.00;154778.25;4993381;28;20468;-89
2024/04/03 09:51:01;;;;;;;2.03;1.10;;;;;;;13.45;67.25;154813.28;4990945;28;20465;-89
2024/04/03 09:53:27;;;;;;;1.40;0.80;;;;;;;13.61;63.45;154854.81;4993321;28;20453;-89
2024/04/03 09:55:54;;;;;;;1.70;0.90;;;;;;;13.73;61.91;154887.25;5004796;28;20548;-90
2024/04/03 09:58:26;;;;;;;1.37;0.70;;;;;;;13.88;61.47;154926.19;4989994;28;20212;-89
2024/04/03 10:00:58;;;;;;;2.07;1.00;;;;;;;13.99;62.75;154954.75;5003527;28;20555;-90
2024/04/03 10:03:27;;;;;;;2.00;0.73;;;;;;;14.03;60.41;154963.84;4993460;28;20445;-89
2024/04/03 10:05:59;;;;;;;1.33;0.80;;;;;;;14.09;60.59;154979.41;4993913;28;20465;-89
2024/04/03 10:08:32;;;;;;;1.67;0.80;;;;;;;14.15;58.96;154995.00;5009666;28;20468;-89
2024/04/03 10:10:58;;;;;;;1.20;0.70;;;;;;;14.17;62.03;154998.88;5000986;28;20546;-88
2024/04/03 10:13:28;;;;;;;1.47;0.60;;;;;;;14.07;62.69;154974.22;4994189;28;20907;-88
2024/04/03 10:16:02;;;;;;;1.80;0.60;;;;;;;14.00;60.16;154956.06;5008122;28;20460;-89
2024/04/03 10:18:28;;;;;;;1.40;0.90;;;;;;;14.02;62.19;154961.25;4993709;28;20454;-88
2024/04/03 10:20:58;;;;;;;1.70;1.13;;;;;;;14.01;63.38;154958.63;5002140;28;20970;-89
2024/04/03 10:23:24;;;;;;;2.80;0.70;;;;;;;13.99;63.29;154954.75;4996122;28;20220;-89
2024/04/03 10:25:51;;;;;;;1.40;0.70;;;;;;;13.93;62.63;154937.84;4993391;28;20474;-88
2024/04/03 10:28:17;;;;;;;1.83;0.70;;;;;;;13.93;67.70;154937.84;4980903;28;20866;-89
2024/04/03 10:30:46;;;;;;;1.93;0.60;;;;;;;13.91;69.04;154932.66;4996510;28;20488;-90
2024/04/03 10:33:12;;;;;;;1.10;0.50;;;;;;;13.86;72.13;154919.69;4996792;28;20903;-88
2024/04/03 10:35:41;;;;;;;1.53;0.60;;;;;;;13.78;72.57;154900.22;4992531;28;20464;-91
2024/04/03 10:38:06;;;;;;;1.27;0.40;;;;;;;13.69;73.63;154875.53;4997831;28;20203;-89
2024/04/03 10:40:33;;;;;;;1.10;0.40;;;;;;;13.61;74.20;154854.81;4997505;28;20477;-89
2024/04/03 10:42:59;;;;;;;0.80;0.40;;;;;;;13.57;75.00;154844.41;4995533;28;20702;-90
2024/04/03 10:45:26;;;;;;;0.80;0.40;;;;;;;13.58;77.41;154847.03;4998526;28;20510;-89
2024/04/03 10:47:53;;;;;;;0.90;0.40;;;;;;;13.54;77.86;154837.91;4994568;28;20664;-88
2024/04/03 10:50:20;;;;;;;1.00;0.47;;;;;;;13.47;77.06;154819.78;5004464;28;20461;-89
2024/04/03 10:52:46;;;;;;;0.87;0.40;;;;;;;13.51;78.37;154828.81;4995102;28;20480;-91
2024/04/03 10:55:13;;;;;;;1.37;0.33;;;;;;;13.49;77.17;154823.66;4997416;28;20567;-89
2024/04/03 10:57:39;;;;;;;0.93;0.50;;;;;;;13.53;77.44;154835.31;4995766;28;20212;-89
2024/04/03 11:00:07;;;;;;;1.13;0.60;;;;;;;13.57;77.49;154844.41;4997335;28;20477;-88
2024/04/03 11:02:33;;;;;;;1.00;0.40;;;;;;;13.61;77.49;154856.06;5004735;28;20454;-88
2024/04/03 11:05:01;;;;;;;0.90;0.50;;;;;;;13.65;78.17;154866.50;4998681;28;20469;-89
2024/04/03 11:07:28;;;;;;;0.90;0.40;;;;;;;13.66;77.62;154867.78;4994037;28;20284;-88
2024/04/03 11:09:54;;;;;;;1.07;0.50;;;;;;;13.67;77.49;154871.66;4997779;28;20464;-89
2024/04/03 11:12:20;;;;;;;1.20;0.70;;;;;;;13.66;76.49;154867.78;4993335;28;20513;-89
2024/04/03 11:14:46;;;;;;;0.90;0.50;;;;;;;13.67;75.50;154870.34;4997652;28;20465;-89
2024/04/03 11:17:12;;;;;;;1.17;0.57;;;;;;;13.70;74.49;154879.47;4996073;28;20675;-91
2024/04/03 11:19:39;;;;;;;1.60;0.70;;;;;;;13.70;75.16;154879.47;4997068;28;20485;-88
2024/04/03 11:22:06;;;;;;;1.10;0.30;;;;;;;13.73;75.43;154885.94;5010182;28;20226;-88
2024/04/03 11:24:32;;;;;;;1.20;0.60;;;;;;;13.69;74.66;154876.84;4996657;28;20458;-89
2024/04/03 11:26:58;;;;;;;2.80;0.80;;;;;;;13.70;72.46;154878.16;4986044;28;20486;-90
2024/04/03 11:29:28;;;;;;;1.47;0.83;;;;;;;13.74;72.94;154888.56;4998352;28;20928;-90
2024/04/03 11:31:53;;;;;;;1.57;0.43;;;;;;;13.78;73.57;154898.91;5009845;28;20214;-90